| time (UTC) | temp F | wind direction | speed knots | gust knots | rain 1hr in | rain 24hr in | rain mn in | humidity % | barometer mb |
| 20260510193002 | 56 | 148 | 1.7 | 6.1 | 0.00 | 0.04 | 0.00 | 72 | 1013.1 |
| 20260510191603 | 56 | 104 | 2.6 | 5.2 | 0.00 | 0.04 | 0.00 | 74 | 1013.3 |
| 20260510190104 | 56 | 98 | 1.7 | 3.5 | 0.00 | 0.04 | 0.00 | 77 | 1013.6 |
| 20260510184559 | 56 | 110 | 2.6 | 7.8 | 0.00 | 0.09 | 0.00 | 78 | 1013.5 |
| 20260510183058 | 54 | 161 | 1.7 | 8.7 | 0.00 | 0.09 | 0.00 | 83 | 1013.6 |
| 20260510181601 | 53 | 153 | 0.9 | 6.1 | 0.00 | 0.09 | 0.00 | 87 | 1013.5 |
| 20260510180058 | 53 | 162 | 1.7 | 6.1 | 0.00 | 0.09 | 0.00 | 87 | 1013.3 |
| 20260510174557 | 54 | 128 | 1.7 | 5.2 | 0.00 | 0.15 | 0.00 | 86 | 1013.3 |
| 20260510173112 | 53 | 154 | 0.0 | 3.5 | 0.00 | 0.15 | 0.00 | 85 | 1013.3 |
| 20260510171556 | 54 | 126 | 0.9 | 5.2 | 0.00 | 0.15 | 0.00 | 84 | 1013.4 |
| 20260510170056 | 53 | 139 | 0.0 | 4.3 | 0.00 | 0.15 | 0.00 | 85 | 1013.3 |
| 20260510164610 | 51 | 85 | 0.0 | 3.5 | 0.00 | 0.19 | 0.00 | 88 | 1013.5 |
| 20260510163102 | 51 | 128 | 0.9 | 3.5 | 0.00 | 0.19 | 0.00 | 89 | 1013.6 |
| 20260510161555 | 51 | 82 | 0.0 | 6.1 | 0.00 | 0.19 | 0.00 | 88 | 1013.6 |
| 20260510160056 | 53 | 159 | 3.5 | 7.8 | 0.00 | 0.19 | 0.00 | 85 | 1013.5 |
| 20260510154550 | 53 | 88 | 6.1 | 9.6 | 0.00 | 0.22 | 0.00 | 83 | 1013.2 |
| 20260510153054 | 54 | 117 | 3.5 | 7.8 | 0.00 | 0.22 | 0.00 | 81 | 1013.2 |
| 20260510151551 | 56 | 153 | 3.5 | 9.6 | 0.00 | 0.22 | 0.00 | 78 | 1013.1 |
| 20260510150046 | 56 | 148 | 1.7 | 10.4 | 0.00 | 0.22 | 0.00 | 78 | 1012.6 |
| 20260510144549 | 56 | 121 | 1.7 | 7.0 | 0.00 | 0.25 | 0.00 | 77 | 1012.5 |
| 20260510143042 | 57 | 224 | 0.0 | 2.6 | 0.00 | 0.25 | 0.00 | 84 | 1012.4 |
| 20260510141540 | 56 | 256 | 0.0 | 1.7 | 0.00 | 0.25 | 0.00 | 87 | 1012.3 |
| 20260510140037 | 56 | 243 | 0.0 | 2.6 | 0.00 | 0.25 | 0.00 | 85 | 1012.3 |
| 20260510134541 | 54 | 112 | 0.9 | 4.3 | 0.00 | 0.26 | 0.00 | 86 | 1012.2 |
| 20260510133030 | 52 | 139 | 0.0 | 3.5 | 0.00 | 0.26 | 0.00 | 89 | 1012.3 |
| 20260510131526 | 51 | 120 | 0.0 | 1.7 | 0.00 | 0.26 | 0.00 | 94 | 1012.5 |
| 20260510130022 | 50 | 101 | 0.0 | 1.7 | 0.00 | 0.26 | 0.00 | 95 | 1012.6 |
| 20260510124518 | 49 | 99 | 0.0 | 1.7 | 0.00 | 0.26 | 0.00 | 96 | 1012.5 |
| 20260510123014 | 48 | 109 | 0.0 | 1.7 | 0.00 | 0.26 | 0.00 | 96 | 1012.3 |
| 20260510121511 | 47 | 78 | 2.6 | 4.3 | 0.00 | 0.26 | 0.00 | 97 | 1012.5 |
| 20260510120010 | 47 | 95 | 1.7 | 5.2 | 0.00 | 0.26 | 0.00 | 97 | 1012.3 |
| 20260510114509 | 46 | 79 | 2.6 | 5.2 | 0.00 | 0.26 | 0.00 | 97 | 1012.3 |
| 20260510113009 | 46 | 65 | 2.6 | 6.1 | 0.00 | 0.26 | 0.00 | 97 | 1012.2 |
| 20260510111507 | 46 | 69 | 1.7 | 3.5 | 0.00 | 0.26 | 0.00 | 97 | 1012.0 |
| 20260510110005 | 46 | 106 | 0.0 | 2.6 | 0.00 | 0.26 | 0.00 | 97 | 1012.0 |
| 20260510104502 | 46 | 239 | 0.0 | 0.9 | 0.00 | 0.26 | 0.00 | 97 | 1011.8 |
| 20260510103004 | 46 | 110 | 0.9 | 4.3 | 0.00 | 0.26 | 0.00 | 97 | 1011.3 |
| 20260510101503 | 46 | 115 | 0.9 | 3.5 | 0.00 | 0.26 | 0.00 | 98 | 1011.2 |
| 20260510100101 | 46 | 108 | 1.7 | 5.2 | 0.00 | 0.26 | 0.00 | 98 | 1010.9 |
| 20260510094602 | 46 | 66 | 2.6 | 4.3 | 0.00 | 0.26 | 0.00 | 98 | 1010.3 |
| 20260510093059 | 45 | 73 | 1.7 | 4.3 | 0.00 | 0.26 | 0.00 | 98 | 1010.5 |
| 20260510091557 | 45 | 90 | 0.0 | 1.7 | 0.00 | 0.26 | 0.00 | 98 | 1010.5 |
| 20260510090106 | 46 | 91 | 0.0 | 1.7 | 0.00 | 0.26 | 0.00 | 98 | 1010.6 |
| 20260510084600 | 46 | 109 | 0.0 | 1.7 | 0.00 | 0.26 | 0.00 | 98 | 1010.6 |
| 20260510083101 | 47 | 121 | 0.9 | 4.3 | 0.00 | 0.26 | 0.00 | 98 | 1010.5 |
| 20260510081554 | 47 | 97 | 1.7 | 7.8 | 0.00 | 0.26 | 0.00 | 98 | 1011.2 |
| 20260510080056 | 47 | 103 | 3.5 | 5.2 | 0.00 | 0.26 | 0.00 | 98 | 1011.1 |
| 20260510074611 | 47 | 105 | 0.9 | 4.3 | 0.00 | 0.26 | 0.00 | 98 | 1011.3 |
| 20260510073050 | 46 | 141 | 2.6 | 7.0 | 0.00 | 0.26 | 0.00 | 98 | 1011.3 |
| 20260510071556 | 46 | 97 | 1.7 | 5.2 | 0.00 | 0.26 | 0.00 | 98 | 1011.1 |
| 20260510070046 | 46 | 100 | 2.6 | 4.3 | 0.00 | 0.26 | 0.00 | 98 | 1010.9 |
| 20260510064605 | 45 | 134 | 2.6 | 5.2 | 0.00 | 0.26 | 0.00 | 98 | 1010.9 |
| 20260510063047 | 45 | 68 | 0.9 | 3.5 | 0.00 | 0.26 | 0.00 | 98 | 1010.9 |
| 20260510061543 | 45 | 78 | 2.6 | 6.1 | 0.00 | 0.26 | 0.00 | 98 | 1011.2 |
| 20260510060052 | 45 | 73 | 2.6 | 7.0 | 0.00 | 0.26 | 0.00 | 98 | 1011.0 |
| 20260510054540 | 45 | 89 | 3.5 | 8.7 | 0.00 | 0.26 | 0.00 | 98 | 1011.0 |
| 20260510053041 | 45 | 102 | 7.0 | 10.4 | 0.00 | 0.26 | 0.00 | 98 | 1011.1 |
| 20260510051541 | 45 | 148 | 5.2 | 9.6 | 0.00 | 0.26 | 0.00 | 98 | 1011.2 |
| 20260510050038 | 45 | 101 | 4.3 | 7.8 | 0.00 | 0.26 | 0.00 | 98 | 1011.2 |
| 20260510044532 | 45 | 104 | 4.3 | 7.8 | 0.00 | 0.26 | 0.00 | 98 | 1011.2 |
| 20260510043028 | 45 | 117 | 2.6 | 4.3 | 0.00 | 0.26 | 0.00 | 98 | 1011.4 |
| 20260510041529 | 45 | 68 | 1.7 | 4.3 | 0.00 | 0.26 | 0.00 | 98 | 1011.6 |
| 20260510040024 | 45 | 117 | 2.6 | 6.1 | 0.00 | 0.26 | 0.26 | 98 | 1011.4 |
| 20260510034523 | 45 | 112 | 2.6 | 6.1 | 0.00 | 0.26 | 0.26 | 98 | 1011.5 |
| 20260510033025 | 45 | 93 | 3.5 | 5.2 | 0.00 | 0.26 | 0.26 | 98 | 1011.5 |
| 20260510031521 | 45 | 104 | 2.6 | 6.1 | 0.00 | 0.26 | 0.26 | 98 | 1011.4 |
| 20260510030021 | 45 | 115 | 1.7 | 5.2 | 0.00 | 0.26 | 0.26 | 98 | 1011.8 |
| 20260510024522 | 45 | 97 | 1.7 | 5.2 | 0.00 | 0.26 | 0.26 | 98 | 1011.7 |
| 20260510023020 | 44 | 95 | 1.7 | 6.1 | 0.00 | 0.26 | 0.26 | 98 | 1011.5 |
| 20260510021517 | 44 | 68 | 2.6 | 6.1 | 0.00 | 0.26 | 0.26 | 98 | 1011.6 |
| 20260510020018 | 44 | 122 | 2.6 | 6.1 | 0.00 | 0.26 | 0.26 | 98 | 1011.9 |
| 20260510014522 | 44 | 107 | 2.6 | 6.1 | 0.00 | 0.26 | 0.26 | 98 | 1012.0 |
| 20260510013016 | 44 | 68 | 1.7 | 6.1 | 0.00 | 0.26 | 0.26 | 98 | 1011.8 |
| 20260510011523 | 44 | 92 | 2.6 | 7.0 | 0.00 | 0.26 | 0.26 | 98 | 1011.9 |
| 20260510010114 | 44 | 112 | 3.5 | 5.2 | 0.00 | 0.26 | 0.26 | 97 | 1012.0 |
| 20260510004513 | 44 | 112 | 2.6 | 6.1 | 0.00 | 0.26 | 0.26 | 97 | 1011.9 |
| 20260510003013 | 44 | 102 | 1.7 | 6.1 | 0.00 | 0.26 | 0.26 | 97 | 1011.6 |
| 20260510001512 | 44 | 127 | 0.9 | 3.5 | 0.00 | 0.26 | 0.26 | 97 | 1011.6 |
| 20260510000011 | 44 | 80 | 1.7 | 5.2 | 0.00 | 0.26 | 0.26 | 97 | 1011.3 |
| 20260509234512 | 44 | 49 | 2.6 | 6.1 | 0.00 | 0.26 | 0.26 | 97 | 1011.2 |
| 20260509233010 | 44 | 86 | 1.7 | 5.2 | 0.00 | 0.26 | 0.26 | 97 | 1011.1 |
| 20260509231510 | 44 | 95 | 1.7 | 3.5 | 0.00 | 0.26 | 0.26 | 97 | 1011.0 |
| 20260509230009 | 44 | 64 | 0.9 | 3.5 | 0.00 | 0.26 | 0.26 | 97 | 1011.0 |
| 20260509224511 | 45 | 98 | 1.7 | 4.3 | 0.00 | 0.26 | 0.26 | 97 | 1011.0 |
| 20260509223008 | 44 | 136 | 1.7 | 4.3 | 0.00 | 0.26 | 0.26 | 97 | 1011.0 |
| 20260509221516 | 44 | 99 | 1.7 | 6.1 | 0.00 | 0.26 | 0.26 | 97 | 1011.0 |
| 20260509220110 | 44 | 78 | 1.7 | 5.2 | 0.01 | 0.26 | 0.26 | 97 | 1011.1 |
| 20260509214500 | 43 | 99 | 1.7 | 5.2 | 0.01 | 0.26 | 0.26 | 97 | 1011.1 |
| 20260509213102 | 43 | 80 | 0.9 | 4.3 | 0.01 | 0.26 | 0.26 | 97 | 1011.2 |
| 20260509211557 | 43 | 111 | 1.7 | 7.0 | 0.01 | 0.26 | 0.26 | 97 | 1011.3 |
| 20260509210100 | 42 | 57 | 2.6 | 7.0 | 0.00 | 0.25 | 0.25 | 97 | 1011.4 |
| 20260509204600 | 43 | 98 | 2.6 | 5.2 | 0.00 | 0.26 | 0.25 | 97 | 1011.4 |
| 20260509203055 | 43 | 134 | 1.7 | 6.1 | 0.01 | 0.26 | 0.25 | 97 | 1011.6 |
| 20260509201552 | 43 | 66 | 1.7 | 6.1 | 0.02 | 0.26 | 0.25 | 97 | 1011.8 |
| 20260509200058 | 42 | 121 | 2.6 | 6.1 | 0.03 | 0.26 | 0.25 | 97 | 1011.8 |
| 20260509194550 | 42 | 82 | 1.7 | 4.3 | 0.04 | 0.26 | 0.25 | 97 | 1011.7 |